sensor_id;sensor_type;location;lat;lon;timestamp;P1;durP1;ratioP1;P2;durP2;ratioP2
68284;SDS011;55114;52.052;5.238;2023-03-08T00:02:19;8.05;;;2.40;;
68284;SDS011;55114;52.052;5.238;2023-03-08T00:04:47;5.30;;;1.88;;
68284;SDS011;55114;52.052;5.238;2023-03-08T00:07:14;6.78;;;1.88;;
68284;SDS011;55114;52.052;5.238;2023-03-08T00:09:43;6.78;;;1.77;;
68284;SDS011;55114;52.052;5.238;2023-03-08T00:12:10;6.17;;;1.70;;
68284;SDS011;55114;52.052;5.238;2023-03-08T00:14:38;6.93;;;1.80;;
68284;SDS011;55114;52.052;5.238;2023-03-08T00:17:05;4.53;;;1.63;;
68284;SDS011;55114;52.052;5.238;2023-03-08T00:19:32;4.97;;;1.60;;
68284;SDS011;55114;52.052;5.238;2023-03-08T00:21:59;4.60;;;1.80;;
68284;SDS011;55114;52.052;5.238;2023-03-08T00:24:27;6.50;;;1.70;;
68284;SDS011;55114;52.052;5.238;2023-03-08T00:26:54;4.22;;;1.52;;
68284;SDS011;55114;52.052;5.238;2023-03-08T00:29:21;4.88;;;1.92;;
68284;SDS011;55114;52.052;5.238;2023-03-08T00:31:49;5.47;;;1.63;;
68284;SDS011;55114;52.052;5.238;2023-03-08T00:34:16;4.45;;;1.85;;
68284;SDS011;55114;52.052;5.238;2023-03-08T00:36:43;5.07;;;1.77;;
68284;SDS011;55114;52.052;5.238;2023-03-08T00:39:13;6.03;;;2.10;;
68284;SDS011;55114;52.052;5.238;2023-03-08T00:41:41;5.22;;;1.80;;
68284;SDS011;55114;52.052;5.238;2023-03-08T00:44:09;4.78;;;1.73;;
68284;SDS011;55114;52.052;5.238;2023-03-08T00:46:36;6.38;;;1.95;;
68284;SDS011;55114;52.052;5.238;2023-03-08T00:49:03;5.87;;;2.03;;
68284;SDS011;55114;52.052;5.238;2023-03-08T00:51:31;5.55;;;2.08;;
68284;SDS011;55114;52.052;5.238;2023-03-08T00:53:58;5.82;;;2.20;;
68284;SDS011;55114;52.052;5.238;2023-03-08T00:56:27;5.70;;;2.40;;
68284;SDS011;55114;52.052;5.238;2023-03-08T00:58:54;6.35;;;2.63;;
68284;SDS011;55114;52.052;5.238;2023-03-08T01:01:22;6.60;;;2.40;;
68284;SDS011;55114;52.052;5.238;2023-03-08T01:03:49;6.15;;;2.70;;
68284;SDS011;55114;52.052;5.238;2023-03-08T01:06:17;7.07;;;3.17;;
68284;SDS011;55114;52.052;5.238;2023-03-08T01:08:44;8.70;;;3.28;;
68284;SDS011;55114;52.052;5.238;2023-03-08T01:11:15;6.30;;;2.95;;
68284;SDS011;55114;52.052;5.238;2023-03-08T01:13:43;6.90;;;3.20;;
68284;SDS011;55114;52.052;5.238;2023-03-08T01:16:18;8.25;;;3.28;;
68284;SDS011;55114;52.052;5.238;2023-03-08T01:18:45;7.22;;;3.33;;
68284;SDS011;55114;52.052;5.238;2023-03-08T01:21:12;9.80;;;3.72;;
68284;SDS011;55114;52.052;5.238;2023-03-08T01:23:40;7.13;;;3.55;;
68284;SDS011;55114;52.052;5.238;2023-03-08T01:26:11;9.70;;;4.20;;
68284;SDS011;55114;52.052;5.238;2023-03-08T01:28:39;8.95;;;4.03;;
68284;SDS011;55114;52.052;5.238;2023-03-08T01:31:07;8.52;;;3.75;;
68284;SDS011;55114;52.052;5.238;2023-03-08T01:33:35;9.10;;;4.47;;
68284;SDS011;55114;52.052;5.238;2023-03-08T01:36:06;9.55;;;4.72;;
68284;SDS011;55114;52.052;5.238;2023-03-08T01:38:34;7.47;;;4.00;;
68284;SDS011;55114;52.052;5.238;2023-03-08T01:41:02;8.38;;;4.22;;
68284;SDS011;55114;52.052;5.238;2023-03-08T01:43:30;10.00;;;4.72;;
68284;SDS011;55114;52.052;5.238;2023-03-08T01:46:03;10.38;;;4.65;;
68284;SDS011;55114;52.052;5.238;2023-03-08T01:48:32;11.77;;;4.38;;
68284;SDS011;55114;52.052;5.238;2023-03-08T01:51:02;10.33;;;5.00;;
68284;SDS011;55114;52.052;5.238;2023-03-08T01:53:31;10.50;;;4.72;;
68284;SDS011;55114;52.052;5.238;2023-03-08T01:56:01;9.50;;;5.25;;
68284;SDS011;55114;52.052;5.238;2023-03-08T01:58:28;12.10;;;5.45;;
68284;SDS011;55114;52.052;5.238;2023-03-08T02:00:56;11.98;;;5.25;;
68284;SDS011;55114;52.052;5.238;2023-03-08T02:03:23;10.77;;;4.87;;
68284;SDS011;55114;52.052;5.238;2023-03-08T02:05:51;10.10;;;5.00;;
68284;SDS011;55114;52.052;5.238;2023-03-08T02:08:18;9.48;;;4.93;;
68284;SDS011;55114;52.052;5.238;2023-03-08T02:10:45;13.82;;;5.00;;
68284;SDS011;55114;52.052;5.238;2023-03-08T02:13:13;11.75;;;4.90;;
68284;SDS011;55114;52.052;5.238;2023-03-08T02:15:40;10.50;;;5.23;;
68284;SDS011;55114;52.052;5.238;2023-03-08T02:18:07;13.15;;;6.20;;
68284;SDS011;55114;52.052;5.238;2023-03-08T02:20:36;15.57;;;6.18;;
68284;SDS011;55114;52.052;5.238;2023-03-08T02:23:11;14.43;;;5.50;;
68284;SDS011;55114;52.052;5.238;2023-03-08T02:25:38;12.63;;;6.43;;
68284;SDS011;55114;52.052;5.238;2023-03-08T02:28:06;11.03;;;5.30;;
68284;SDS011;55114;52.052;5.238;2023-03-08T02:30:35;11.52;;;5.50;;
68284;SDS011;55114;52.052;5.238;2023-03-08T02:33:03;11.48;;;5.22;;
68284;SDS011;55114;52.052;5.238;2023-03-08T02:35:30;12.82;;;6.28;;
68284;SDS011;55114;52.052;5.238;2023-03-08T02:37:58;15.52;;;6.38;;
68284;SDS011;55114;52.052;5.238;2023-03-08T02:40:25;12.17;;;5.83;;
68284;SDS011;55114;52.052;5.238;2023-03-08T02:42:52;13.90;;;6.30;;
68284;SDS011;55114;52.052;5.238;2023-03-08T02:45:21;14.25;;;6.10;;
68284;SDS011;55114;52.052;5.238;2023-03-08T02:47:49;13.23;;;6.10;;
68284;SDS011;55114;52.052;5.238;2023-03-08T02:50:17;11.43;;;6.40;;
68284;SDS011;55114;52.052;5.238;2023-03-08T02:52:44;13.57;;;6.47;;
68284;SDS011;55114;52.052;5.238;2023-03-08T02:55:12;13.23;;;6.97;;
68284;SDS011;55114;52.052;5.238;2023-03-08T02:57:39;13.95;;;6.50;;
68284;SDS011;55114;52.052;5.238;2023-03-08T03:00:08;14.43;;;7.13;;
68284;SDS011;55114;52.052;5.238;2023-03-08T03:02:36;15.20;;;7.25;;
68284;SDS011;55114;52.052;5.238;2023-03-08T03:05:08;18.70;;;8.03;;
68284;SDS011;55114;52.052;5.238;2023-03-08T03:07:40;15.15;;;7.40;;
68284;SDS011;55114;52.052;5.238;2023-03-08T03:10:08;14.95;;;7.47;;
68284;SDS011;55114;52.052;5.238;2023-03-08T03:12:36;15.88;;;7.25;;
68284;SDS011;55114;52.052;5.238;2023-03-08T03:15:04;14.63;;;7.40;;
68284;SDS011;55114;52.052;5.238;2023-03-08T03:17:31;15.17;;;7.47;;
68284;SDS011;55114;52.052;5.238;2023-03-08T03:19:59;15.30;;;7.32;;
68284;SDS011;55114;52.052;5.238;2023-03-08T03:22:26;14.23;;;7.43;;
68284;SDS011;55114;52.052;5.238;2023-03-08T03:24:53;17.48;;;8.05;;
68284;SDS011;55114;52.052;5.238;2023-03-08T03:27:21;18.13;;;7.85;;
68284;SDS011;55114;52.052;5.238;2023-03-08T03:29:48;15.30;;;7.67;;
68284;SDS011;55114;52.052;5.238;2023-03-08T03:32:17;17.23;;;7.22;;
68284;SDS011;55114;52.052;5.238;2023-03-08T03:34:44;18.55;;;8.18;;
68284;SDS011;55114;52.052;5.238;2023-03-08T03:37:11;18.27;;;8.27;;
68284;SDS011;55114;52.052;5.238;2023-03-08T03:39:40;20.02;;;7.45;;
68284;SDS011;55114;52.052;5.238;2023-03-08T03:42:08;21.90;;;8.63;;
68284;SDS011;55114;52.052;5.238;2023-03-08T03:44:35;24.20;;;9.65;;
68284;SDS011;55114;52.052;5.238;2023-03-08T03:47:03;23.30;;;9.00;;
68284;SDS011;55114;52.052;5.238;2023-03-08T03:49:30;33.25;;;9.75;;
68284;SDS011;55114;52.052;5.238;2023-03-08T03:51:57;36.75;;;9.80;;
68284;SDS011;55114;52.052;5.238;2023-03-08T03:54:24;69.90;;;11.67;;
68284;SDS011;55114;52.052;5.238;2023-03-08T03:56:52;35.60;;;9.02;;
68284;SDS011;55114;52.052;5.238;2023-03-08T03:59:23;43.58;;;9.02;;
68284;SDS011;55114;52.052;5.238;2023-03-08T04:01:52;39.42;;;10.85;;
68284;SDS011;55114;52.052;5.238;2023-03-08T04:04:19;62.47;;;10.70;;
68284;SDS011;55114;52.052;5.238;2023-03-08T04:06:47;48.33;;;11.23;;
68284;SDS011;55114;52.052;5.238;2023-03-08T04:09:15;57.28;;;13.40;;
68284;SDS011;55114;52.052;5.238;2023-03-08T04:11:43;75.40;;;13.63;;
68284;SDS011;55114;52.052;5.238;2023-03-08T04:14:10;54.15;;;12.65;;
68284;SDS011;55114;52.052;5.238;2023-03-08T04:16:38;64.50;;;13.25;;
68284;SDS011;55114;52.052;5.238;2023-03-08T04:19:06;48.67;;;12.80;;
68284;SDS011;55114;52.052;5.238;2023-03-08T04:21:34;47.58;;;12.00;;
68284;SDS011;55114;52.052;5.238;2023-03-08T04:24:02;51.65;;;12.18;;
68284;SDS011;55114;52.052;5.238;2023-03-08T04:26:30;48.78;;;11.27;;
68284;SDS011;55114;52.052;5.238;2023-03-08T04:28:59;51.63;;;13.20;;
68284;SDS011;55114;52.052;5.238;2023-03-08T04:31:32;57.67;;;14.07;;
68284;SDS011;55114;52.052;5.238;2023-03-08T04:34:00;53.25;;;14.23;;
68284;SDS011;55114;52.052;5.238;2023-03-08T04:36:28;44.78;;;14.23;;
68284;SDS011;55114;52.052;5.238;2023-03-08T04:38:57;69.05;;;15.23;;
68284;SDS011;55114;52.052;5.238;2023-03-08T04:41:25;86.38;;;15.43;;
68284;SDS011;55114;52.052;5.238;2023-03-08T04:43:54;74.23;;;15.13;;
68284;SDS011;55114;52.052;5.238;2023-03-08T04:46:22;59.97;;;15.07;;
68284;SDS011;55114;52.052;5.238;2023-03-08T04:48:50;60.33;;;15.75;;
68284;SDS011;55114;52.052;5.238;2023-03-08T04:51:24;61.90;;;14.68;;
68284;SDS011;55114;52.052;5.238;2023-03-08T04:53:51;66.95;;;14.80;;
68284;SDS011;55114;52.052;5.238;2023-03-08T04:56:20;110.40;;;16.40;;
68284;SDS011;55114;52.052;5.238;2023-03-08T04:58:50;79.07;;;16.27;;
68284;SDS011;55114;52.052;5.238;2023-03-08T05:01:18;64.47;;;15.13;;
68284;SDS011;55114;52.052;5.238;2023-03-08T05:03:45;66.95;;;16.67;;
68284;SDS011;55114;52.052;5.238;2023-03-08T05:06:15;87.22;;;15.07;;
68284;SDS011;55114;52.052;5.238;2023-03-08T05:08:42;87.90;;;15.57;;
68284;SDS011;55114;52.052;5.238;2023-03-08T05:11:09;71.88;;;15.07;;
68284;SDS011;55114;52.052;5.238;2023-03-08T05:13:40;83.88;;;16.65;;
68284;SDS011;55114;52.052;5.238;2023-03-08T05:16:08;95.68;;;15.95;;
68284;SDS011;55114;52.052;5.238;2023-03-08T05:18:35;96.82;;;17.05;;
68284;SDS011;55114;52.052;5.238;2023-03-08T05:21:03;85.03;;;16.33;;
68284;SDS011;55114;52.052;5.238;2023-03-08T05:23:31;75.93;;;16.02;;
68284;SDS011;55114;52.052;5.238;2023-03-08T05:26:00;66.50;;;15.40;;
68284;SDS011;55114;52.052;5.238;2023-03-08T05:28:28;78.55;;;16.33;;
68284;SDS011;55114;52.052;5.238;2023-03-08T05:31:14;82.90;;;16.88;;
68284;SDS011;55114;52.052;5.238;2023-03-08T05:33:43;76.90;;;16.63;;
68284;SDS011;55114;52.052;5.238;2023-03-08T05:36:13;107.78;;;16.17;;
68284;SDS011;55114;52.052;5.238;2023-03-08T05:38:41;116.07;;;17.75;;
68284;SDS011;55114;52.052;5.238;2023-03-08T05:41:13;118.35;;;17.27;;
68284;SDS011;55114;52.052;5.238;2023-03-08T05:43:40;80.80;;;17.02;;
68284;SDS011;55114;52.052;5.238;2023-03-08T05:46:10;77.27;;;16.87;;
68284;SDS011;55114;52.052;5.238;2023-03-08T05:48:40;80.25;;;16.88;;
68284;SDS011;55114;52.052;5.238;2023-03-08T05:51:09;82.03;;;16.33;;
68284;SDS011;55114;52.052;5.238;2023-03-08T05:53:37;102.40;;;15.93;;
68284;SDS011;55114;52.052;5.238;2023-03-08T05:58:35;64.50;;;13.93;;
68284;SDS011;55114;52.052;5.238;2023-03-08T06:03:36;41.42;;;11.75;;
68284;SDS011;55114;52.052;5.238;2023-03-08T06:06:03;63.20;;;16.73;;
68284;SDS011;55114;52.052;5.238;2023-03-08T06:08:30;65.38;;;16.35;;
68284;SDS011;55114;52.052;5.238;2023-03-08T06:10:58;60.83;;;14.33;;
68284;SDS011;55114;52.052;5.238;2023-03-08T06:13:25;64.20;;;15.88;;
68284;SDS011;55114;52.052;5.238;2023-03-08T06:15:53;53.92;;;16.13;;
68284;SDS011;55114;52.052;5.238;2023-03-08T06:18:21;45.33;;;13.55;;
68284;SDS011;55114;52.052;5.238;2023-03-08T06:23:24;64.30;;;15.87;;
68284;SDS011;55114;52.052;5.238;2023-03-08T06:25:51;65.03;;;16.35;;
68284;SDS011;55114;52.052;5.238;2023-03-08T06:28:19;60.95;;;18.17;;
68284;SDS011;55114;52.052;5.238;2023-03-08T06:30:47;63.85;;;15.52;;
68284;SDS011;55114;52.052;5.238;2023-03-08T06:33:17;57.58;;;15.15;;
68284;SDS011;55114;52.052;5.238;2023-03-08T06:35:55;65.03;;;16.43;;
68284;SDS011;55114;52.052;5.238;2023-03-08T06:38:24;62.40;;;16.50;;
68284;SDS011;55114;52.052;5.238;2023-03-08T06:40:55;61.05;;;17.13;;
68284;SDS011;55114;52.052;5.238;2023-03-08T06:43:22;60.42;;;16.63;;
68284;SDS011;55114;52.052;5.238;2023-03-08T06:45:49;64.55;;;18.00;;
68284;SDS011;55114;52.052;5.238;2023-03-08T06:48:17;51.00;;;15.73;;
68284;SDS011;55114;52.052;5.238;2023-03-08T06:50:44;56.35;;;16.42;;
68284;SDS011;55114;52.052;5.238;2023-03-08T06:53:11;61.95;;;17.75;;
68284;SDS011;55114;52.052;5.238;2023-03-08T06:55:39;54.03;;;17.45;;
68284;SDS011;55114;52.052;5.238;2023-03-08T06:58:07;54.40;;;16.80;;
68284;SDS011;55114;52.052;5.238;2023-03-08T07:00:35;48.63;;;16.00;;
68284;SDS011;55114;52.052;5.238;2023-03-08T07:03:02;49.78;;;15.88;;
68284;SDS011;55114;52.052;5.238;2023-03-08T07:05:30;51.70;;;16.63;;
68284;SDS011;55114;52.052;5.238;2023-03-08T07:07:57;47.63;;;15.95;;
68284;SDS011;55114;52.052;5.238;2023-03-08T07:10:24;51.20;;;16.38;;
68284;SDS011;55114;52.052;5.238;2023-03-08T07:12:52;44.93;;;15.60;;
68284;SDS011;55114;52.052;5.238;2023-03-08T07:15:20;47.60;;;15.70;;
68284;SDS011;55114;52.052;5.238;2023-03-08T07:17:53;43.55;;;15.48;;
68284;SDS011;55114;52.052;5.238;2023-03-08T07:20:21;33.40;;;10.63;;
68284;SDS011;55114;52.052;5.238;2023-03-08T07:22:50;46.70;;;15.80;;
68284;SDS011;55114;52.052;5.238;2023-03-08T07:25:18;47.80;;;15.90;;
68284;SDS011;55114;52.052;5.238;2023-03-08T07:27:46;27.00;;;10.15;;
68284;SDS011;55114;52.052;5.238;2023-03-08T07:30:14;56.92;;;16.92;;
68284;SDS011;55114;52.052;5.238;2023-03-08T07:32:41;39.88;;;13.63;;
68284;SDS011;55114;52.052;5.238;2023-03-08T07:35:10;57.17;;;16.75;;
68284;SDS011;55114;52.052;5.238;2023-03-08T07:37:38;49.50;;;16.30;;
68284;SDS011;55114;52.052;5.238;2023-03-08T07:40:06;55.95;;;16.75;;
68284;SDS011;55114;52.052;5.238;2023-03-08T07:42:34;55.83;;;15.15;;
68284;SDS011;55114;52.052;5.238;2023-03-08T07:45:01;53.05;;;15.38;;
68284;SDS011;55114;52.052;5.238;2023-03-08T07:47:30;59.72;;;16.85;;
68284;SDS011;55114;52.052;5.238;2023-03-08T07:49:58;66.30;;;17.63;;
68284;SDS011;55114;52.052;5.238;2023-03-08T07:52:26;53.20;;;13.60;;
68284;SDS011;55114;52.052;5.238;2023-03-08T07:54:54;56.95;;;16.80;;
68284;SDS011;55114;52.052;5.238;2023-03-08T07:57:23;71.50;;;17.95;;
68284;SDS011;55114;52.052;5.238;2023-03-08T07:59:51;64.40;;;16.98;;
68284;SDS011;55114;52.052;5.238;2023-03-08T08:02:19;32.23;;;9.70;;
68284;SDS011;55114;52.052;5.238;2023-03-08T08:04:47;58.13;;;17.30;;
68284;SDS011;55114;52.052;5.238;2023-03-08T08:07:16;50.13;;;12.77;;
68284;SDS011;55114;52.052;5.238;2023-03-08T08:09:43;56.67;;;16.60;;
68284;SDS011;55114;52.052;5.238;2023-03-08T08:12:10;62.45;;;17.77;;
68284;SDS011;55114;52.052;5.238;2023-03-08T08:14:38;54.33;;;13.53;;
68284;SDS011;55114;52.052;5.238;2023-03-08T08:17:05;61.88;;;17.20;;
68284;SDS011;55114;52.052;5.238;2023-03-08T08:19:33;52.80;;;15.38;;
68284;SDS011;55114;52.052;5.238;2023-03-08T08:22:01;69.82;;;18.65;;
68284;SDS011;55114;52.052;5.238;2023-03-08T08:24:29;85.53;;;19.02;;
68284;SDS011;55114;52.052;5.238;2023-03-08T08:26:58;74.10;;;18.87;;
68284;SDS011;55114;52.052;5.238;2023-03-08T08:29:26;70.65;;;18.70;;
68284;SDS011;55114;52.052;5.238;2023-03-08T08:31:53;78.45;;;18.23;;
68284;SDS011;55114;52.052;5.238;2023-03-08T08:34:22;68.88;;;17.65;;
68284;SDS011;55114;52.052;5.238;2023-03-08T08:36:50;79.32;;;19.00;;
68284;SDS011;55114;52.052;5.238;2023-03-08T08:39:17;86.23;;;20.10;;
68284;SDS011;55114;52.052;5.238;2023-03-08T08:41:47;72.72;;;18.08;;
68284;SDS011;55114;52.052;5.238;2023-03-08T08:44:14;62.03;;;14.68;;
68284;SDS011;55114;52.052;5.238;2023-03-08T08:46:44;73.75;;;18.23;;
68284;SDS011;55114;52.052;5.238;2023-03-08T08:49:12;68.38;;;15.90;;
68284;SDS011;55114;52.052;5.238;2023-03-08T08:51:39;60.90;;;15.30;;
68284;SDS011;55114;52.052;5.238;2023-03-08T08:54:09;54.60;;;14.18;;
68284;SDS011;55114;52.052;5.238;2023-03-08T08:56:36;54.70;;;13.32;;
68284;SDS011;55114;52.052;5.238;2023-03-08T08:59:09;59.10;;;14.70;;
68284;SDS011;55114;52.052;5.238;2023-03-08T09:01:37;48.92;;;12.43;;
68284;SDS011;55114;52.052;5.238;2023-03-08T09:04:12;44.20;;;12.47;;
68284;SDS011;55114;52.052;5.238;2023-03-08T09:06:42;44.83;;;12.32;;
68284;SDS011;55114;52.052;5.238;2023-03-08T09:09:09;39.97;;;12.05;;
68284;SDS011;55114;52.052;5.238;2023-03-08T09:11:37;46.03;;;12.23;;
68284;SDS011;55114;52.052;5.238;2023-03-08T09:14:19;49.78;;;13.32;;
68284;SDS011;55114;52.052;5.238;2023-03-08T09:16:46;55.47;;;14.33;;
68284;SDS011;55114;52.052;5.238;2023-03-08T09:19:16;57.65;;;13.95;;
68284;SDS011;55114;52.052;5.238;2023-03-08T09:21:44;50.47;;;13.23;;
68284;SDS011;55114;52.052;5.238;2023-03-08T09:24:11;55.40;;;13.48;;
68284;SDS011;55114;52.052;5.238;2023-03-08T09:26:38;53.38;;;13.07;;
68284;SDS011;55114;52.052;5.238;2023-03-08T09:29:08;59.07;;;14.07;;
68284;SDS011;55114;52.052;5.238;2023-03-08T09:31:36;59.92;;;14.15;;
68284;SDS011;55114;52.052;5.238;2023-03-08T09:34:04;54.28;;;14.00;;
68284;SDS011;55114;52.052;5.238;2023-03-08T09:36:37;47.13;;;12.73;;
68284;SDS011;55114;52.052;5.238;2023-03-08T09:39:05;51.90;;;13.40;;
68284;SDS011;55114;52.052;5.238;2023-03-08T09:41:38;54.83;;;14.33;;
68284;SDS011;55114;52.052;5.238;2023-03-08T09:46:54;47.85;;;13.00;;
68284;SDS011;55114;52.052;5.238;2023-03-08T09:49:27;44.15;;;12.35;;
68284;SDS011;55114;52.052;5.238;2023-03-08T09:52:12;45.63;;;12.65;;
68284;SDS011;55114;52.052;5.238;2023-03-08T09:54:42;45.97;;;12.57;;
68284;SDS011;55114;52.052;5.238;2023-03-08T09:57:12;34.15;;;10.38;;
68284;SDS011;55114;52.052;5.238;2023-03-08T09:59:51;38.53;;;12.10;;
68284;SDS011;55114;52.052;5.238;2023-03-08T10:02:43;42.40;;;13.02;;
68284;SDS011;55114;52.052;5.238;2023-03-08T10:15:48;32.67;;;11.38;;
68284;SDS011;55114;52.052;5.238;2023-03-08T10:18:26;34.78;;;12.10;;
68284;SDS011;55114;52.052;5.238;2023-03-08T10:20:57;31.57;;;10.90;;
68284;SDS011;55114;52.052;5.238;2023-03-08T10:23:30;37.90;;;11.80;;
68284;SDS011;55114;52.052;5.238;2023-03-08T10:25:59;36.25;;;11.90;;
68284;SDS011;55114;52.052;5.238;2023-03-08T10:28:27;27.42;;;9.68;;
68284;SDS011;55114;52.052;5.238;2023-03-08T10:30:55;27.13;;;8.65;;
68284;SDS011;55114;52.052;5.238;2023-03-08T10:33:28;25.20;;;9.67;;
68284;SDS011;55114;52.052;5.238;2023-03-08T10:36:01;39.40;;;12.48;;
68284;SDS011;55114;52.052;5.238;2023-03-08T10:38:32;29.70;;;10.52;;
68284;SDS011;55114;52.052;5.238;2023-03-08T10:41:05;36.50;;;11.55;;
68284;SDS011;55114;52.052;5.238;2023-03-08T10:43:44;27.92;;;10.02;;
68284;SDS011;55114;52.052;5.238;2023-03-08T10:46:33;25.37;;;9.90;;
68284;SDS011;55114;52.052;5.238;2023-03-08T10:49:13;32.13;;;9.68;;
68284;SDS011;55114;52.052;5.238;2023-03-08T10:51:50;25.88;;;8.85;;
68284;SDS011;55114;52.052;5.238;2023-03-08T10:54:18;29.17;;;9.30;;
68284;SDS011;55114;52.052;5.238;2023-03-08T10:56:58;28.50;;;10.07;;
68284;SDS011;55114;52.052;5.238;2023-03-08T10:59:27;19.63;;;6.90;;
68284;SDS011;55114;52.052;5.238;2023-03-08T11:01:59;24.20;;;8.57;;
68284;SDS011;55114;52.052;5.238;2023-03-08T11:04:27;28.27;;;9.57;;
68284;SDS011;55114;52.052;5.238;2023-03-08T11:06:57;15.93;;;5.90;;
68284;SDS011;55114;52.052;5.238;2023-03-08T11:11:55;29.03;;;10.50;;
68284;SDS011;55114;52.052;5.238;2023-03-08T11:14:23;31.00;;;10.25;;
68284;SDS011;55114;52.052;5.238;2023-03-08T11:35:46;21.95;;;8.68;;
68284;SDS011;55114;52.052;5.238;2023-03-08T11:38:26;22.17;;;8.30;;
68284;SDS011;55114;52.052;5.238;2023-03-08T11:54:14;19.30;;;6.07;;
68284;SDS011;55114;52.052;5.238;2023-03-08T11:59:25;23.60;;;8.00;;
68284;SDS011;55114;52.052;5.238;2023-03-08T12:07:12;20.85;;;7.25;;
68284;SDS011;55114;52.052;5.238;2023-03-08T12:09:53;25.77;;;8.75;;
68284;SDS011;55114;52.052;5.238;2023-03-08T12:17:39;19.93;;;6.73;;
68284;SDS011;55114;52.052;5.238;2023-03-08T12:20:16;18.58;;;6.68;;
68284;SDS011;55114;52.052;5.238;2023-03-08T12:22:46;17.77;;;6.45;;
68284;SDS011;55114;52.052;5.238;2023-03-08T12:25:21;18.02;;;5.85;;
68284;SDS011;55114;52.052;5.238;2023-03-08T12:28:00;17.48;;;6.10;;
68284;SDS011;55114;52.052;5.238;2023-03-08T12:30:34;17.30;;;5.77;;
68284;SDS011;55114;52.052;5.238;2023-03-08T12:33:05;18.02;;;5.72;;
68284;SDS011;55114;52.052;5.238;2023-03-08T12:35:35;17.27;;;5.68;;
68284;SDS011;55114;52.052;5.238;2023-03-08T12:40:47;17.58;;;6.75;;
68284;SDS011;55114;52.052;5.238;2023-03-08T12:45:57;17.20;;;6.18;;
68284;SDS011;55114;52.052;5.238;2023-03-08T12:48:26;20.40;;;7.10;;
68284;SDS011;55114;52.052;5.238;2023-03-08T12:50:57;18.63;;;6.50;;
68284;SDS011;55114;52.052;5.238;2023-03-08T12:54:15;18.20;;;6.68;;
68284;SDS011;55114;52.052;5.238;2023-03-08T13:01:26;15.20;;;6.10;;
68284;SDS011;55114;52.052;5.238;2023-03-08T13:03:54;14.90;;;5.18;;
68284;SDS011;55114;52.052;5.238;2023-03-08T13:08:51;14.43;;;4.87;;
68284;SDS011;55114;52.052;5.238;2023-03-08T13:11:20;18.33;;;6.20;;
68284;SDS011;55114;52.052;5.238;2023-03-08T13:13:54;15.27;;;5.28;;
68284;SDS011;55114;52.052;5.238;2023-03-08T13:16:35;16.20;;;5.60;;
68284;SDS011;55114;52.052;5.238;2023-03-08T13:19:25;15.13;;;5.22;;
68284;SDS011;55114;52.052;5.238;2023-03-08T13:27:06;14.80;;;5.07;;
68284;SDS011;55114;52.052;5.238;2023-03-08T13:29:36;16.20;;;5.90;;
68284;SDS011;55114;52.052;5.238;2023-03-08T13:32:06;17.65;;;5.85;;
68284;SDS011;55114;52.052;5.238;2023-03-08T13:34:37;15.60;;;5.10;;
68284;SDS011;55114;52.052;5.238;2023-03-08T13:37:20;15.38;;;5.57;;
68284;SDS011;55114;52.052;5.238;2023-03-08T13:39:54;22.40;;;6.10;;
68284;SDS011;55114;52.052;5.238;2023-03-08T13:42:23;18.63;;;5.95;;
68284;SDS011;55114;52.052;5.238;2023-03-08T13:44:51;17.02;;;5.70;;
68284;SDS011;55114;52.052;5.238;2023-03-08T13:47:23;21.63;;;7.50;;
68284;SDS011;55114;52.052;5.238;2023-03-08T13:49:52;19.95;;;7.80;;
68284;SDS011;55114;52.052;5.238;2023-03-08T13:52:22;16.80;;;6.40;;
68284;SDS011;55114;52.052;5.238;2023-03-08T13:54:53;24.00;;;10.70;;
68284;SDS011;55114;52.052;5.238;2023-03-08T13:57:25;20.95;;;8.95;;
68284;SDS011;55114;52.052;5.238;2023-03-08T13:59:57;19.87;;;6.90;;
68284;SDS011;55114;52.052;5.238;2023-03-08T14:02:27;18.45;;;6.80;;
68284;SDS011;55114;52.052;5.238;2023-03-08T14:04:55;20.98;;;7.05;;
68284;SDS011;55114;52.052;5.238;2023-03-08T14:07:27;20.35;;;7.47;;
68284;SDS011;55114;52.052;5.238;2023-03-08T14:09:55;22.33;;;7.82;;
68284;SDS011;55114;52.052;5.238;2023-03-08T14:12:23;22.40;;;7.43;;
68284;SDS011;55114;52.052;5.238;2023-03-08T14:14:59;20.35;;;7.75;;
68284;SDS011;55114;52.052;5.238;2023-03-08T14:17:28;19.30;;;6.75;;
68284;SDS011;55114;52.052;5.238;2023-03-08T14:19:57;21.17;;;7.35;;
68284;SDS011;55114;52.052;5.238;2023-03-08T14:22:27;19.30;;;7.15;;
68284;SDS011;55114;52.052;5.238;2023-03-08T14:25:05;14.17;;;5.77;;
68284;SDS011;55114;52.052;5.238;2023-03-08T14:27:37;19.35;;;6.80;;
68284;SDS011;55114;52.052;5.238;2023-03-08T14:30:10;15.40;;;6.00;;
68284;SDS011;55114;52.052;5.238;2023-03-08T14:32:39;16.10;;;5.22;;
68284;SDS011;55114;52.052;5.238;2023-03-08T14:35:15;19.98;;;7.60;;
68284;SDS011;55114;52.052;5.238;2023-03-08T14:37:45;17.70;;;5.63;;
68284;SDS011;55114;52.052;5.238;2023-03-08T14:40:22;22.83;;;10.05;;
68284;SDS011;55114;52.052;5.238;2023-03-08T14:42:52;20.23;;;7.82;;
68284;SDS011;55114;52.052;5.238;2023-03-08T14:45:24;15.27;;;5.95;;
68284;SDS011;55114;52.052;5.238;2023-03-08T14:47:54;17.92;;;6.78;;
68284;SDS011;55114;52.052;5.238;2023-03-08T14:50:24;19.93;;;7.33;;
68284;SDS011;55114;52.052;5.238;2023-03-08T14:52:53;21.35;;;8.48;;
68284;SDS011;55114;52.052;5.238;2023-03-08T14:55:27;24.83;;;8.98;;
68284;SDS011;55114;52.052;5.238;2023-03-08T14:58:00;24.05;;;8.65;;
68284;SDS011;55114;52.052;5.238;2023-03-08T15:00:29;26.38;;;8.50;;
68284;SDS011;55114;52.052;5.238;2023-03-08T15:02:57;25.77;;;8.30;;
68284;SDS011;55114;52.052;5.238;2023-03-08T15:05:24;27.25;;;8.95;;
68284;SDS011;55114;52.052;5.238;2023-03-08T15:07:55;25.25;;;8.82;;
68284;SDS011;55114;52.052;5.238;2023-03-08T15:10:25;25.77;;;9.95;;
68284;SDS011;55114;52.052;5.238;2023-03-08T15:12:54;28.40;;;9.68;;
68284;SDS011;55114;52.052;5.238;2023-03-08T15:15:21;29.30;;;9.70;;
68284;SDS011;55114;52.052;5.238;2023-03-08T15:17:51;26.23;;;9.75;;
68284;SDS011;55114;52.052;5.238;2023-03-08T15:20:18;26.10;;;9.30;;
68284;SDS011;55114;52.052;5.238;2023-03-08T15:22:47;27.77;;;9.88;;
68284;SDS011;55114;52.052;5.238;2023-03-08T15:25:28;29.42;;;9.10;;
68284;SDS011;55114;52.052;5.238;2023-03-08T15:27:56;26.93;;;9.27;;
68284;SDS011;55114;52.052;5.238;2023-03-08T15:30:24;30.40;;;10.18;;
68284;SDS011;55114;52.052;5.238;2023-03-08T15:32:52;30.10;;;10.13;;
68284;SDS011;55114;52.052;5.238;2023-03-08T15:35:20;28.30;;;9.00;;
68284;SDS011;55114;52.052;5.238;2023-03-08T15:37:48;32.72;;;10.70;;
68284;SDS011;55114;52.052;5.238;2023-03-08T15:40:18;30.93;;;9.73;;
68284;SDS011;55114;52.052;5.238;2023-03-08T15:42:45;30.08;;;9.00;;
68284;SDS011;55114;52.052;5.238;2023-03-08T15:45:13;28.38;;;9.98;;
68284;SDS011;55114;52.052;5.238;2023-03-08T15:47:41;25.77;;;8.02;;
68284;SDS011;55114;52.052;5.238;2023-03-08T15:50:13;25.17;;;7.93;;
68284;SDS011;55114;52.052;5.238;2023-03-08T15:52:40;27.33;;;8.10;;
68284;SDS011;55114;52.052;5.238;2023-03-08T15:55:09;24.38;;;7.95;;
68284;SDS011;55114;52.052;5.238;2023-03-08T15:57:37;22.10;;;8.57;;
68284;SDS011;55114;52.052;5.238;2023-03-08T16:00:06;24.45;;;7.38;;
68284;SDS011;55114;52.052;5.238;2023-03-08T16:02:38;20.80;;;7.00;;
68284;SDS011;55114;52.052;5.238;2023-03-08T16:05:06;25.00;;;9.77;;
68284;SDS011;55114;52.052;5.238;2023-03-08T16:07:34;22.95;;;8.30;;
68284;SDS011;55114;52.052;5.238;2023-03-08T16:10:02;22.20;;;8.13;;
68284;SDS011;55114;52.052;5.238;2023-03-08T16:12:30;24.00;;;8.68;;